CheckWX is a tool to help pilots better visualize weather data.  It is not intended as a substitute for an official pre-flight weather briefing.

16:01:21 UTC

KOPF TAF
Miami-Opa Locka Executive Airport
Miami, Florida, USA
KOPF 241458Z 2415/2512 26006KT P6SM SCT030 SCT250 FM241800 14009KT P6SM VCTS SCT025CB BKN050 FM250000 15005KT P6SM SCT040

Jun-24@
15:00 UTC

Jun-24 @ 15:00 UTC

Jun-24@
18:00 UTC

Jun-24 @ 18:00 UTC

KOPF 241458Z 2415/2512 26006KT P6SM SCT030 SCT250
Wind
  • 260° at 6 KTS
Cloud Levels
  • Scattered at 3,000' AGL
  • Scattered at 25,000' AGL

Jun-24@
18:00 UTC

Jun-24 @ 18:00 UTC

Jun-25@
00:00 UTC

Jun-25 @ 00:00 UTC

FM241800 14009KT P6SM VCTS SCT025CB BKN050

From

From Standard forecast or significant change

Wind
  • 140° at 9 KTS
Conditions
Area Thunderstorm
Cloud Levels
  • Scattered at 2,500' AGL
  • Broken at 5,000' AGL

Jun-25@
00:00 UTC

Jun-25 @ 00:00 UTC

Jun-25@
12:00 UTC

Jun-25 @ 12:00 UTC

FM250000 15005KT P6SM SCT040

From

From Standard forecast or significant change

Wind
  • 150° at 5 KTS
Cloud Levels
  • Scattered at 4,000' AGL